sensor_id;sensor_type;location;lat;lon;timestamp;P1;durP1;ratioP1;P2;durP2;ratioP2
30149;SDS011;16962;48.646;9.026;2024-03-25T00:02:11;8.68;;;4.60;;
30149;SDS011;16962;48.646;9.026;2024-03-25T00:04:58;10.80;;;5.00;;
30149;SDS011;16962;48.646;9.026;2024-03-25T00:07:47;11.88;;;4.55;;
30149;SDS011;16962;48.646;9.026;2024-03-25T00:10:34;12.20;;;4.75;;
30149;SDS011;16962;48.646;9.026;2024-03-25T00:13:22;13.52;;;4.43;;
30149;SDS011;16962;48.646;9.026;2024-03-25T00:16:09;10.02;;;5.55;;
30149;SDS011;16962;48.646;9.026;2024-03-25T00:18:55;9.50;;;5.38;;
30149;SDS011;16962;48.646;9.026;2024-03-25T00:21:41;13.50;;;5.68;;
30149;SDS011;16962;48.646;9.026;2024-03-25T00:24:28;10.98;;;5.05;;
30149;SDS011;16962;48.646;9.026;2024-03-25T00:27:14;9.55;;;6.13;;
30149;SDS011;16962;48.646;9.026;2024-03-25T00:30:01;13.35;;;5.18;;
30149;SDS011;16962;48.646;9.026;2024-03-25T00:32:48;12.77;;;5.75;;
30149;SDS011;16962;48.646;9.026;2024-03-25T00:35:34;7.32;;;5.05;;
30149;SDS011;16962;48.646;9.026;2024-03-25T00:38:21;17.45;;;5.70;;
30149;SDS011;16962;48.646;9.026;2024-03-25T00:41:07;9.07;;;5.05;;
30149;SDS011;16962;48.646;9.026;2024-03-25T00:44:01;15.15;;;5.43;;
30149;SDS011;16962;48.646;9.026;2024-03-25T00:46:47;12.13;;;5.13;;
30149;SDS011;16962;48.646;9.026;2024-03-25T00:49:33;9.63;;;6.03;;
30149;SDS011;16962;48.646;9.026;2024-03-25T00:52:22;14.27;;;5.82;;
30149;SDS011;16962;48.646;9.026;2024-03-25T00:55:08;10.93;;;6.13;;
30149;SDS011;16962;48.646;9.026;2024-03-25T00:57:55;16.13;;;6.00;;
30149;SDS011;16962;48.646;9.026;2024-03-25T01:00:41;12.38;;;5.25;;
30149;SDS011;16962;48.646;9.026;2024-03-25T01:03:28;11.85;;;5.72;;
30149;SDS011;16962;48.646;9.026;2024-03-25T01:06:14;12.75;;;5.18;;
30149;SDS011;16962;48.646;9.026;2024-03-25T01:09:00;14.15;;;5.55;;
30149;SDS011;16962;48.646;9.026;2024-03-25T01:11:50;19.15;;;5.78;;
30149;SDS011;16962;48.646;9.026;2024-03-25T01:14:36;9.52;;;5.65;;
30149;SDS011;16962;48.646;9.026;2024-03-25T01:17:23;16.15;;;5.55;;
30149;SDS011;16962;48.646;9.026;2024-03-25T01:20:09;14.23;;;5.80;;
30149;SDS011;16962;48.646;9.026;2024-03-25T01:22:56;14.13;;;5.45;;
30149;SDS011;16962;48.646;9.026;2024-03-25T01:25:42;14.30;;;5.60;;
30149;SDS011;16962;48.646;9.026;2024-03-25T01:28:28;14.98;;;5.43;;
30149;SDS011;16962;48.646;9.026;2024-03-25T01:31:15;12.38;;;5.35;;
30149;SDS011;16962;48.646;9.026;2024-03-25T01:34:02;9.48;;;5.30;;
30149;SDS011;16962;48.646;9.026;2024-03-25T01:36:49;13.52;;;5.55;;
30149;SDS011;16962;48.646;9.026;2024-03-25T01:39:35;9.98;;;5.40;;
30149;SDS011;16962;48.646;9.026;2024-03-25T01:42:23;11.35;;;6.00;;
30149;SDS011;16962;48.646;9.026;2024-03-25T01:45:09;10.98;;;5.65;;
30149;SDS011;16962;48.646;9.026;2024-03-25T01:47:56;12.77;;;5.80;;
30149;SDS011;16962;48.646;9.026;2024-03-25T01:50:44;13.00;;;6.45;;
30149;SDS011;16962;48.646;9.026;2024-03-25T01:53:31;14.48;;;6.13;;
30149;SDS011;16962;48.646;9.026;2024-03-25T01:56:18;7.97;;;5.50;;
30149;SDS011;16962;48.646;9.026;2024-03-25T01:59:05;13.68;;;5.93;;
30149;SDS011;16962;48.646;9.026;2024-03-25T02:01:51;23.60;;;6.63;;
30149;SDS011;16962;48.646;9.026;2024-03-25T02:04:40;12.07;;;6.05;;
30149;SDS011;16962;48.646;9.026;2024-03-25T02:07:28;14.98;;;6.72;;
30149;SDS011;16962;48.646;9.026;2024-03-25T02:10:15;15.15;;;5.95;;
30149;SDS011;16962;48.646;9.026;2024-03-25T02:13:02;11.98;;;6.25;;
30149;SDS011;16962;48.646;9.026;2024-03-25T02:15:49;12.23;;;6.50;;
30149;SDS011;16962;48.646;9.026;2024-03-25T02:18:37;13.02;;;6.60;;
30149;SDS011;16962;48.646;9.026;2024-03-25T02:21:23;9.77;;;6.53;;
30149;SDS011;16962;48.646;9.026;2024-03-25T02:24:09;9.57;;;5.80;;
30149;SDS011;16962;48.646;9.026;2024-03-25T02:27:00;14.50;;;7.07;;
30149;SDS011;16962;48.646;9.026;2024-03-25T02:29:47;15.85;;;6.57;;
30149;SDS011;16962;48.646;9.026;2024-03-25T02:32:33;15.10;;;6.70;;
30149;SDS011;16962;48.646;9.026;2024-03-25T02:35:20;11.90;;;6.40;;
30149;SDS011;16962;48.646;9.026;2024-03-25T02:38:08;13.23;;;6.40;;
30149;SDS011;16962;48.646;9.026;2024-03-25T02:40:55;14.32;;;7.05;;
30149;SDS011;16962;48.646;9.026;2024-03-25T02:43:42;12.77;;;6.20;;
30149;SDS011;16962;48.646;9.026;2024-03-25T02:46:28;16.65;;;6.80;;
30149;SDS011;16962;48.646;9.026;2024-03-25T02:49:15;13.95;;;5.90;;
30149;SDS011;16962;48.646;9.026;2024-03-25T02:52:01;13.02;;;6.53;;
30149;SDS011;16962;48.646;9.026;2024-03-25T02:54:48;14.77;;;7.35;;
30149;SDS011;16962;48.646;9.026;2024-03-25T02:57:37;9.52;;;6.18;;
30149;SDS011;16962;48.646;9.026;2024-03-25T03:00:23;15.15;;;7.18;;
30149;SDS011;16962;48.646;9.026;2024-03-25T03:03:10;15.40;;;7.07;;
30149;SDS011;16962;48.646;9.026;2024-03-25T03:05:56;16.63;;;7.13;;
30149;SDS011;16962;48.646;9.026;2024-03-25T03:08:42;18.67;;;6.70;;
30149;SDS011;16962;48.646;9.026;2024-03-25T03:11:30;12.10;;;6.32;;
30149;SDS011;16962;48.646;9.026;2024-03-25T03:14:16;13.27;;;6.60;;
30149;SDS011;16962;48.646;9.026;2024-03-25T03:17:03;12.93;;;6.53;;
30149;SDS011;16962;48.646;9.026;2024-03-25T03:19:50;13.68;;;6.82;;
30149;SDS011;16962;48.646;9.026;2024-03-25T03:22:37;14.13;;;6.85;;
30149;SDS011;16962;48.646;9.026;2024-03-25T03:25:23;13.02;;;6.75;;
30149;SDS011;16962;48.646;9.026;2024-03-25T03:28:09;12.18;;;6.85;;
30149;SDS011;16962;48.646;9.026;2024-03-25T03:30:56;12.80;;;6.63;;
30149;SDS011;16962;48.646;9.026;2024-03-25T03:33:42;14.25;;;6.47;;
30149;SDS011;16962;48.646;9.026;2024-03-25T03:36:28;12.00;;;6.57;;
30149;SDS011;16962;48.646;9.026;2024-03-25T03:39:15;16.70;;;6.95;;
30149;SDS011;16962;48.646;9.026;2024-03-25T03:42:01;12.70;;;6.57;;
30149;SDS011;16962;48.646;9.026;2024-03-25T03:44:48;16.60;;;7.35;;
30149;SDS011;16962;48.646;9.026;2024-03-25T03:47:34;11.15;;;7.18;;
30149;SDS011;16962;48.646;9.026;2024-03-25T03:50:21;15.57;;;6.68;;
30149;SDS011;16962;48.646;9.026;2024-03-25T03:53:07;14.60;;;7.18;;
30149;SDS011;16962;48.646;9.026;2024-03-25T03:55:57;10.43;;;6.50;;
30149;SDS011;16962;48.646;9.026;2024-03-25T03:58:45;16.20;;;6.85;;
30149;SDS011;16962;48.646;9.026;2024-03-25T04:01:31;11.32;;;6.60;;
30149;SDS011;16962;48.646;9.026;2024-03-25T04:04:17;8.88;;;5.97;;
30149;SDS011;16962;48.646;9.026;2024-03-25T04:07:04;11.88;;;6.47;;
30149;SDS011;16962;48.646;9.026;2024-03-25T04:09:50;12.07;;;6.35;;
30149;SDS011;16962;48.646;9.026;2024-03-25T04:12:37;12.25;;;6.55;;
30149;SDS011;16962;48.646;9.026;2024-03-25T04:15:24;11.43;;;6.38;;
30149;SDS011;16962;48.646;9.026;2024-03-25T04:18:12;14.30;;;6.10;;
30149;SDS011;16962;48.646;9.026;2024-03-25T04:20:59;12.13;;;6.28;;
30149;SDS011;16962;48.646;9.026;2024-03-25T04:23:46;14.75;;;6.72;;
30149;SDS011;16962;48.646;9.026;2024-03-25T04:26:35;15.88;;;6.75;;
30149;SDS011;16962;48.646;9.026;2024-03-25T04:29:21;14.45;;;6.38;;
30149;SDS011;16962;48.646;9.026;2024-03-25T04:32:08;14.48;;;6.95;;
30149;SDS011;16962;48.646;9.026;2024-03-25T04:34:54;12.70;;;6.63;;
30149;SDS011;16962;48.646;9.026;2024-03-25T04:37:40;14.32;;;7.70;;
30149;SDS011;16962;48.646;9.026;2024-03-25T04:40:27;13.07;;;6.70;;
30149;SDS011;16962;48.646;9.026;2024-03-25T04:43:13;11.80;;;7.28;;
30149;SDS011;16962;48.646;9.026;2024-03-25T04:46:03;10.38;;;6.35;;
30149;SDS011;16962;48.646;9.026;2024-03-25T04:48:49;14.00;;;7.10;;
30149;SDS011;16962;48.646;9.026;2024-03-25T04:51:35;16.35;;;6.78;;
30149;SDS011;16962;48.646;9.026;2024-03-25T04:54:22;16.27;;;6.97;;
30149;SDS011;16962;48.646;9.026;2024-03-25T04:57:08;18.40;;;7.80;;
30149;SDS011;16962;48.646;9.026;2024-03-25T04:59:57;14.43;;;6.80;;
30149;SDS011;16962;48.646;9.026;2024-03-25T05:02:43;13.95;;;8.02;;
30149;SDS011;16962;48.646;9.026;2024-03-25T05:05:30;20.52;;;8.90;;
30149;SDS011;16962;48.646;9.026;2024-03-25T05:08:16;19.45;;;8.35;;
30149;SDS011;16962;48.646;9.026;2024-03-25T05:11:02;14.57;;;7.70;;
30149;SDS011;16962;48.646;9.026;2024-03-25T05:13:49;14.80;;;7.80;;
30149;SDS011;16962;48.646;9.026;2024-03-25T05:16:35;15.15;;;7.78;;
30149;SDS011;16962;48.646;9.026;2024-03-25T05:19:24;15.55;;;8.32;;
30149;SDS011;16962;48.646;9.026;2024-03-25T05:22:10;15.13;;;7.60;;
30149;SDS011;16962;48.646;9.026;2024-03-25T05:24:57;17.27;;;8.02;;
30149;SDS011;16962;48.646;9.026;2024-03-25T05:27:43;13.60;;;8.15;;
30149;SDS011;16962;48.646;9.026;2024-03-25T05:30:29;17.23;;;7.63;;
30149;SDS011;16962;48.646;9.026;2024-03-25T05:33:16;17.23;;;8.88;;
30149;SDS011;16962;48.646;9.026;2024-03-25T05:36:04;13.23;;;8.35;;
30149;SDS011;16962;48.646;9.026;2024-03-25T05:38:51;18.58;;;9.07;;
30149;SDS011;16962;48.646;9.026;2024-03-25T05:41:37;16.33;;;8.93;;
30149;SDS011;16962;48.646;9.026;2024-03-25T05:44:24;16.92;;;7.80;;
30149;SDS011;16962;48.646;9.026;2024-03-25T05:47:10;16.98;;;8.25;;
30149;SDS011;16962;48.646;9.026;2024-03-25T05:49:56;15.60;;;8.70;;
30149;SDS011;16962;48.646;9.026;2024-03-25T05:52:42;18.25;;;8.70;;
30149;SDS011;16962;48.646;9.026;2024-03-25T05:55:29;18.10;;;8.80;;
30149;SDS011;16962;48.646;9.026;2024-03-25T05:58:15;15.93;;;8.23;;
30149;SDS011;16962;48.646;9.026;2024-03-25T06:01:02;15.15;;;7.70;;
30149;SDS011;16962;48.646;9.026;2024-03-25T06:03:50;18.27;;;8.30;;
30149;SDS011;16962;48.646;9.026;2024-03-25T06:06:36;16.77;;;8.57;;
30149;SDS011;16962;48.646;9.026;2024-03-25T06:09:22;16.23;;;9.07;;
30149;SDS011;16962;48.646;9.026;2024-03-25T06:12:09;16.38;;;8.70;;
30149;SDS011;16962;48.646;9.026;2024-03-25T06:14:55;16.83;;;7.78;;
30149;SDS011;16962;48.646;9.026;2024-03-25T06:17:41;16.75;;;8.23;;
30149;SDS011;16962;48.646;9.026;2024-03-25T06:20:28;14.32;;;8.85;;
30149;SDS011;16962;48.646;9.026;2024-03-25T06:23:27;19.50;;;8.85;;
30149;SDS011;16962;48.646;9.026;2024-03-25T06:26:14;16.60;;;8.80;;
30149;SDS011;16962;48.646;9.026;2024-03-25T06:29:00;18.92;;;10.52;;
30149;SDS011;16962;48.646;9.026;2024-03-25T06:31:48;15.70;;;8.98;;
30149;SDS011;16962;48.646;9.026;2024-03-25T06:34:53;15.68;;;8.05;;
30149;SDS011;16962;48.646;9.026;2024-03-25T06:37:39;12.32;;;7.70;;
30149;SDS011;16962;48.646;9.026;2024-03-25T06:40:25;18.20;;;7.85;;
30149;SDS011;16962;48.646;9.026;2024-03-25T06:43:12;20.00;;;8.05;;
30149;SDS011;16962;48.646;9.026;2024-03-25T06:46:01;17.15;;;8.52;;
30149;SDS011;16962;48.646;9.026;2024-03-25T06:48:48;16.23;;;8.30;;
30149;SDS011;16962;48.646;9.026;2024-03-25T06:51:34;15.48;;;7.78;;
30149;SDS011;16962;48.646;9.026;2024-03-25T06:54:21;16.38;;;7.70;;
30149;SDS011;16962;48.646;9.026;2024-03-25T06:57:07;16.13;;;7.13;;
30149;SDS011;16962;48.646;9.026;2024-03-25T06:59:54;15.75;;;7.25;;
30149;SDS011;16962;48.646;9.026;2024-03-25T07:02:43;17.58;;;8.15;;
30149;SDS011;16962;48.646;9.026;2024-03-25T07:05:29;19.88;;;8.20;;
30149;SDS011;16962;48.646;9.026;2024-03-25T07:08:17;18.67;;;7.68;;
30149;SDS011;16962;48.646;9.026;2024-03-25T07:11:05;15.02;;;7.25;;
30149;SDS011;16962;48.646;9.026;2024-03-25T07:13:51;14.75;;;7.70;;
30149;SDS011;16962;48.646;9.026;2024-03-25T07:16:38;18.70;;;6.53;;
30149;SDS011;16962;48.646;9.026;2024-03-25T07:19:24;17.15;;;6.70;;
30149;SDS011;16962;48.646;9.026;2024-03-25T07:22:10;10.68;;;6.03;;
30149;SDS011;16962;48.646;9.026;2024-03-25T07:24:57;13.18;;;7.43;;
30149;SDS011;16962;48.646;9.026;2024-03-25T07:27:43;12.25;;;7.53;;
30149;SDS011;16962;48.646;9.026;2024-03-25T07:30:30;13.98;;;7.70;;
30149;SDS011;16962;48.646;9.026;2024-03-25T07:33:16;13.82;;;6.88;;
30149;SDS011;16962;48.646;9.026;2024-03-25T07:36:03;14.75;;;6.57;;
30149;SDS011;16962;48.646;9.026;2024-03-25T07:38:50;10.60;;;5.80;;
30149;SDS011;16962;48.646;9.026;2024-03-25T07:41:36;11.65;;;5.32;;
30149;SDS011;16962;48.646;9.026;2024-03-25T07:44:25;11.98;;;5.05;;
30149;SDS011;16962;48.646;9.026;2024-03-25T07:47:12;7.63;;;4.43;;
30149;SDS011;16962;48.646;9.026;2024-03-25T07:49:58;7.63;;;5.13;;
30149;SDS011;16962;48.646;9.026;2024-03-25T07:52:45;7.38;;;3.80;;
30149;SDS011;16962;48.646;9.026;2024-03-25T07:55:31;11.27;;;4.05;;
30149;SDS011;16962;48.646;9.026;2024-03-25T07:58:18;6.05;;;3.80;;
30149;SDS011;16962;48.646;9.026;2024-03-25T08:01:04;7.88;;;3.50;;
30149;SDS011;16962;48.646;9.026;2024-03-25T08:03:52;8.35;;;3.40;;
30149;SDS011;16962;48.646;9.026;2024-03-25T08:06:38;6.38;;;3.25;;
30149;SDS011;16962;48.646;9.026;2024-03-25T08:09:24;4.45;;;3.10;;
30149;SDS011;16962;48.646;9.026;2024-03-25T08:12:14;6.88;;;3.55;;
30149;SDS011;16962;48.646;9.026;2024-03-25T08:15:00;8.68;;;4.00;;
30149;SDS011;16962;48.646;9.026;2024-03-25T08:17:46;9.05;;;3.58;;
30149;SDS011;16962;48.646;9.026;2024-03-25T08:20:33;10.93;;;2.90;;
30149;SDS011;16962;48.646;9.026;2024-03-25T08:23:19;5.65;;;3.08;;
30149;SDS011;16962;48.646;9.026;2024-03-25T08:26:09;8.18;;;3.67;;
30149;SDS011;16962;48.646;9.026;2024-03-25T08:28:55;9.25;;;3.13;;
30149;SDS011;16962;48.646;9.026;2024-03-25T08:31:41;7.82;;;3.55;;
30149;SDS011;16962;48.646;9.026;2024-03-25T08:34:28;6.05;;;2.80;;
30149;SDS011;16962;48.646;9.026;2024-03-25T08:37:17;6.57;;;2.75;;
30149;SDS011;16962;48.646;9.026;2024-03-25T08:40:03;6.35;;;2.70;;
30149;SDS011;16962;48.646;9.026;2024-03-25T08:42:53;4.70;;;2.90;;
30149;SDS011;16962;48.646;9.026;2024-03-25T08:45:40;8.88;;;3.20;;
30149;SDS011;16962;48.646;9.026;2024-03-25T08:48:26;6.40;;;3.28;;
30149;SDS011;16962;48.646;9.026;2024-03-25T08:51:13;6.10;;;2.90;;
30149;SDS011;16962;48.646;9.026;2024-03-25T08:54:28;6.28;;;2.55;;
30149;SDS011;16962;48.646;9.026;2024-03-25T08:57:14;8.95;;;3.70;;
30149;SDS011;16962;48.646;9.026;2024-03-25T09:00:01;13.38;;;4.50;;
30149;SDS011;16962;48.646;9.026;2024-03-25T09:02:49;4.50;;;2.95;;
30149;SDS011;16962;48.646;9.026;2024-03-25T09:05:36;8.40;;;3.22;;
30149;SDS011;16962;48.646;9.026;2024-03-25T09:08:25;6.65;;;3.10;;
30149;SDS011;16962;48.646;9.026;2024-03-25T09:11:12;6.03;;;2.70;;
30149;SDS011;16962;48.646;9.026;2024-03-25T09:13:58;8.85;;;2.65;;
30149;SDS011;16962;48.646;9.026;2024-03-25T09:16:45;7.63;;;2.92;;
30149;SDS011;16962;48.646;9.026;2024-03-25T09:19:31;6.05;;;3.20;;
30149;SDS011;16962;48.646;9.026;2024-03-25T09:22:17;8.23;;;3.20;;
30149;SDS011;16962;48.646;9.026;2024-03-25T09:25:04;7.10;;;3.10;;
30149;SDS011;16962;48.646;9.026;2024-03-25T09:27:51;7.50;;;2.97;;
30149;SDS011;16962;48.646;9.026;2024-03-25T09:30:37;6.55;;;2.78;;
30149;SDS011;16962;48.646;9.026;2024-03-25T09:33:25;9.48;;;2.85;;
30149;SDS011;16962;48.646;9.026;2024-03-25T09:36:11;8.07;;;2.50;;
30149;SDS011;16962;48.646;9.026;2024-03-25T09:38:58;6.72;;;2.40;;
30149;SDS011;16962;48.646;9.026;2024-03-25T09:41:44;7.35;;;2.85;;
30149;SDS011;16962;48.646;9.026;2024-03-25T09:44:31;6.45;;;2.70;;
30149;SDS011;16962;48.646;9.026;2024-03-25T09:47:18;6.93;;;2.65;;
30149;SDS011;16962;48.646;9.026;2024-03-25T09:50:04;6.43;;;2.55;;
30149;SDS011;16962;48.646;9.026;2024-03-25T09:52:54;8.73;;;3.00;;
30149;SDS011;16962;48.646;9.026;2024-03-25T09:55:41;6.63;;;2.25;;
30149;SDS011;16962;48.646;9.026;2024-03-25T09:58:28;7.18;;;2.72;;
30149;SDS011;16962;48.646;9.026;2024-03-25T10:01:16;6.63;;;2.35;;
30149;SDS011;16962;48.646;9.026;2024-03-25T10:04:02;5.93;;;2.20;;
30149;SDS011;16962;48.646;9.026;2024-03-25T10:06:49;5.28;;;2.13;;
30149;SDS011;16962;48.646;9.026;2024-03-25T10:09:36;8.68;;;2.40;;
30149;SDS011;16962;48.646;9.026;2024-03-25T10:12:22;6.55;;;2.13;;
30149;SDS011;16962;48.646;9.026;2024-03-25T10:15:08;5.20;;;2.10;;
30149;SDS011;16962;48.646;9.026;2024-03-25T10:18:00;2.97;;;1.85;;
30149;SDS011;16962;48.646;9.026;2024-03-25T10:20:47;2.92;;;1.92;;
30149;SDS011;16962;48.646;9.026;2024-03-25T10:23:39;4.10;;;2.05;;
30149;SDS011;16962;48.646;9.026;2024-03-25T10:26:28;3.75;;;2.10;;
30149;SDS011;16962;48.646;9.026;2024-03-25T10:29:17;5.93;;;1.90;;
30149;SDS011;16962;48.646;9.026;2024-03-25T10:32:03;4.60;;;1.83;;
30149;SDS011;16962;48.646;9.026;2024-03-25T10:34:50;6.88;;;2.10;;
30149;SDS011;16962;48.646;9.026;2024-03-25T10:37:38;3.67;;;2.15;;
30149;SDS011;16962;48.646;9.026;2024-03-25T10:40:28;2.88;;;1.98;;
30149;SDS011;16962;48.646;9.026;2024-03-25T10:43:16;4.70;;;1.60;;
30149;SDS011;16962;48.646;9.026;2024-03-25T10:46:03;2.88;;;1.60;;
30149;SDS011;16962;48.646;9.026;2024-03-25T10:55:46;3.00;;;1.40;;
30149;SDS011;16962;48.646;9.026;2024-03-25T10:58:35;3.72;;;1.90;;
30149;SDS011;16962;48.646;9.026;2024-03-25T11:01:22;3.53;;;2.40;;
30149;SDS011;16962;48.646;9.026;2024-03-25T11:04:10;2.53;;;1.50;;
30149;SDS011;16962;48.646;9.026;2024-03-25T11:07:10;4.60;;;1.90;;
30149;SDS011;16962;48.646;9.026;2024-03-25T11:10:07;2.40;;;1.80;;
30149;SDS011;16962;48.646;9.026;2024-03-25T11:12:54;6.72;;;1.70;;
30149;SDS011;16962;48.646;9.026;2024-03-25T11:15:41;3.65;;;2.33;;
30149;SDS011;16962;48.646;9.026;2024-03-25T11:18:31;3.20;;;1.52;;
30149;SDS011;16962;48.646;9.026;2024-03-25T11:21:24;2.63;;;1.80;;
30149;SDS011;16962;48.646;9.026;2024-03-25T11:24:11;3.10;;;1.40;;
30149;SDS011;16962;48.646;9.026;2024-03-25T11:26:57;3.83;;;1.52;;
30149;SDS011;16962;48.646;9.026;2024-03-25T11:29:44;3.00;;;1.40;;
30149;SDS011;16962;48.646;9.026;2024-03-25T11:32:41;3.92;;;1.70;;
30149;SDS011;16962;48.646;9.026;2024-03-25T11:35:30;3.25;;;1.38;;
30149;SDS011;16962;48.646;9.026;2024-03-25T11:38:22;4.07;;;1.23;;
30149;SDS011;16962;48.646;9.026;2024-03-25T11:41:12;4.10;;;1.40;;
30149;SDS011;16962;48.646;9.026;2024-03-25T11:43:59;2.50;;;1.30;;
30149;SDS011;16962;48.646;9.026;2024-03-25T11:46:46;3.63;;;1.52;;
30149;SDS011;16962;48.646;9.026;2024-03-25T11:49:32;4.40;;;1.90;;
30149;SDS011;16962;48.646;9.026;2024-03-25T11:52:19;2.85;;;1.33;;
30149;SDS011;16962;48.646;9.026;2024-03-25T11:55:06;2.97;;;1.58;;
30149;SDS011;16962;48.646;9.026;2024-03-25T11:57:57;4.38;;;1.40;;
30149;SDS011;16962;48.646;9.026;2024-03-25T12:00:47;6.10;;;1.60;;
30149;SDS011;16962;48.646;9.026;2024-03-25T12:03:39;6.50;;;2.15;;
30149;SDS011;16962;48.646;9.026;2024-03-25T12:06:26;2.67;;;1.20;;
30149;SDS011;16962;48.646;9.026;2024-03-25T12:09:12;5.35;;;1.60;;
30149;SDS011;16962;48.646;9.026;2024-03-25T12:12:17;4.25;;;1.55;;
30149;SDS011;16962;48.646;9.026;2024-03-25T12:15:03;4.63;;;1.92;;
30149;SDS011;16962;48.646;9.026;2024-03-25T12:17:50;5.97;;;1.80;;
30149;SDS011;16962;48.646;9.026;2024-03-25T12:20:37;5.63;;;1.90;;
30149;SDS011;16962;48.646;9.026;2024-03-25T12:23:28;3.45;;;1.70;;
30149;SDS011;16962;48.646;9.026;2024-03-25T12:26:18;5.68;;;1.70;;
30149;SDS011;16962;48.646;9.026;2024-03-25T12:29:05;3.65;;;1.80;;
30149;SDS011;16962;48.646;9.026;2024-03-25T12:31:55;7.57;;;2.13;;
30149;SDS011;16962;48.646;9.026;2024-03-25T12:34:49;3.22;;;1.65;;
30149;SDS011;16962;48.646;9.026;2024-03-25T12:37:42;2.95;;;1.65;;
30149;SDS011;16962;48.646;9.026;2024-03-25T12:40:30;3.38;;;1.52;;
30149;SDS011;16962;48.646;9.026;2024-03-25T12:43:16;3.60;;;1.52;;
30149;SDS011;16962;48.646;9.026;2024-03-25T12:46:03;4.53;;;1.60;;
30149;SDS011;16962;48.646;9.026;2024-03-25T12:48:49;3.10;;;1.60;;
30149;SDS011;16962;48.646;9.026;2024-03-25T12:51:36;4.03;;;1.55;;
30149;SDS011;16962;48.646;9.026;2024-03-25T12:54:22;2.13;;;1.30;;
30149;SDS011;16962;48.646;9.026;2024-03-25T12:57:09;4.03;;;1.38;;
30149;SDS011;16962;48.646;9.026;2024-03-25T12:59:56;4.22;;;1.58;;
30149;SDS011;16962;48.646;9.026;2024-03-25T13:02:43;3.63;;;1.20;;
30149;SDS011;16962;48.646;9.026;2024-03-25T13:05:39;2.22;;;1.33;;
30149;SDS011;16962;48.646;9.026;2024-03-25T13:08:29;4.50;;;1.50;;
30149;SDS011;16962;48.646;9.026;2024-03-25T13:11:15;3.60;;;1.63;;
30149;SDS011;16962;48.646;9.026;2024-03-25T13:14:03;8.05;;;1.25;;
30149;SDS011;16962;48.646;9.026;2024-03-25T13:16:52;4.88;;;1.50;;
30149;SDS011;16962;48.646;9.026;2024-03-25T13:19:40;2.60;;;1.25;;
30149;SDS011;16962;48.646;9.026;2024-03-25T13:22:27;4.65;;;1.30;;
30149;SDS011;16962;48.646;9.026;2024-03-25T13:25:14;3.53;;;1.40;;
30149;SDS011;16962;48.646;9.026;2024-03-25T13:28:01;4.90;;;1.30;;
30149;SDS011;16962;48.646;9.026;2024-03-25T13:30:47;3.90;;;1.17;;
30149;SDS011;16962;48.646;9.026;2024-03-25T13:33:34;2.80;;;1.58;;
30149;SDS011;16962;48.646;9.026;2024-03-25T13:36:20;3.92;;;1.50;;
30149;SDS011;16962;48.646;9.026;2024-03-25T13:39:07;5.97;;;1.20;;
30149;SDS011;16962;48.646;9.026;2024-03-25T13:41:54;1.52;;;1.00;;
30149;SDS011;16962;48.646;9.026;2024-03-25T13:44:40;2.47;;;1.27;;
30149;SDS011;16962;48.646;9.026;2024-03-25T13:47:27;3.42;;;1.30;;
30149;SDS011;16962;48.646;9.026;2024-03-25T13:50:13;3.05;;;1.60;;
30149;SDS011;16962;48.646;9.026;2024-03-25T13:53:00;5.68;;;1.58;;
30149;SDS011;16962;48.646;9.026;2024-03-25T13:55:46;5.53;;;1.48;;
30149;SDS011;16962;48.646;9.026;2024-03-25T13:58:32;4.30;;;1.65;;
30149;SDS011;16962;48.646;9.026;2024-03-25T14:01:21;1.85;;;1.20;;
30149;SDS011;16962;48.646;9.026;2024-03-25T14:04:09;4.35;;;1.60;;
30149;SDS011;16962;48.646;9.026;2024-03-25T14:06:56;2.80;;;1.13;;
30149;SDS011;16962;48.646;9.026;2024-03-25T14:09:44;4.78;;;1.60;;
30149;SDS011;16962;48.646;9.026;2024-03-25T14:12:32;3.45;;;1.65;;
30149;SDS011;16962;48.646;9.026;2024-03-25T14:15:18;3.15;;;1.60;;
30149;SDS011;16962;48.646;9.026;2024-03-25T14:18:05;5.50;;;1.70;;
30149;SDS011;16962;48.646;9.026;2024-03-25T14:20:53;3.50;;;1.50;;
30149;SDS011;16962;48.646;9.026;2024-03-25T14:23:40;4.25;;;1.63;;
30149;SDS011;16962;48.646;9.026;2024-03-25T14:26:29;4.10;;;1.88;;
30149;SDS011;16962;48.646;9.026;2024-03-25T14:29:15;3.97;;;1.77;;
30149;SDS011;16962;48.646;9.026;2024-03-25T14:32:02;2.42;;;1.42;;
30149;SDS011;16962;48.646;9.026;2024-03-25T14:34:49;4.07;;;2.10;;
30149;SDS011;16962;48.646;9.026;2024-03-25T14:37:35;2.97;;;1.80;;
30149;SDS011;16962;48.646;9.026;2024-03-25T14:40:21;6.07;;;2.30;;
30149;SDS011;16962;48.646;9.026;2024-03-25T14:43:08;5.22;;;2.08;;
30149;SDS011;16962;48.646;9.026;2024-03-25T14:45:54;3.97;;;1.95;;
30149;SDS011;16962;48.646;9.026;2024-03-25T14:48:40;3.50;;;1.38;;
30149;SDS011;16962;48.646;9.026;2024-03-25T14:51:27;5.07;;;1.85;;
30149;SDS011;16962;48.646;9.026;2024-03-25T14:54:13;5.45;;;2.03;;
30149;SDS011;16962;48.646;9.026;2024-03-25T14:57:00;3.28;;;1.90;;
30149;SDS011;16962;48.646;9.026;2024-03-25T14:59:47;4.70;;;1.90;;
30149;SDS011;16962;48.646;9.026;2024-03-25T15:02:33;4.25;;;1.83;;
30149;SDS011;16962;48.646;9.026;2024-03-25T15:05:19;5.70;;;2.00;;
30149;SDS011;16962;48.646;9.026;2024-03-25T15:08:06;3.05;;;1.55;;
30149;SDS011;16962;48.646;9.026;2024-03-25T15:10:52;7.95;;;2.10;;
30149;SDS011;16962;48.646;9.026;2024-03-25T15:13:39;2.30;;;1.52;;
30149;SDS011;16962;48.646;9.026;2024-03-25T15:16:27;3.55;;;1.42;;
30149;SDS011;16962;48.646;9.026;2024-03-25T15:19:13;3.33;;;1.60;;
30149;SDS011;16962;48.646;9.026;2024-03-25T15:22:00;3.05;;;1.80;;
30149;SDS011;16962;48.646;9.026;2024-03-25T15:24:47;4.97;;;2.38;;
30149;SDS011;16962;48.646;9.026;2024-03-25T15:27:34;4.90;;;1.63;;
30149;SDS011;16962;48.646;9.026;2024-03-25T15:30:20;4.80;;;1.67;;
30149;SDS011;16962;48.646;9.026;2024-03-25T15:33:06;2.92;;;1.65;;
30149;SDS011;16962;48.646;9.026;2024-03-25T15:35:53;1.88;;;1.25;;
30149;SDS011;16962;48.646;9.026;2024-03-25T15:38:39;7.32;;;1.85;;
30149;SDS011;16962;48.646;9.026;2024-03-25T15:41:26;3.90;;;1.50;;
30149;SDS011;16962;48.646;9.026;2024-03-25T15:44:14;3.10;;;1.65;;
30149;SDS011;16962;48.646;9.026;2024-03-25T15:47:01;2.38;;;1.48;;
30149;SDS011;16962;48.646;9.026;2024-03-25T15:49:48;2.53;;;1.60;;
30149;SDS011;16962;48.646;9.026;2024-03-25T15:52:36;3.92;;;1.42;;
30149;SDS011;16962;48.646;9.026;2024-03-25T15:55:22;4.32;;;1.67;;
30149;SDS011;16962;48.646;9.026;2024-03-25T15:58:09;2.28;;;1.60;;
30149;SDS011;16962;48.646;9.026;2024-03-25T16:00:55;6.38;;;3.40;;
30149;SDS011;16962;48.646;9.026;2024-03-25T16:03:42;3.15;;;1.55;;
30149;SDS011;16962;48.646;9.026;2024-03-25T16:06:33;3.13;;;1.60;;
30149;SDS011;16962;48.646;9.026;2024-03-25T16:09:20;5.00;;;1.90;;
30149;SDS011;16962;48.646;9.026;2024-03-25T16:12:07;2.33;;;1.55;;
30149;SDS011;16962;48.646;9.026;2024-03-25T16:14:54;3.22;;;1.70;;
30149;SDS011;16962;48.646;9.026;2024-03-25T16:17:42;2.38;;;1.50;;
30149;SDS011;16962;48.646;9.026;2024-03-25T16:20:29;2.65;;;1.90;;
30149;SDS011;16962;48.646;9.026;2024-03-25T16:23:16;6.43;;;1.98;;
30149;SDS011;16962;48.646;9.026;2024-03-25T16:26:02;2.47;;;1.50;;
30149;SDS011;16962;48.646;9.026;2024-03-25T16:28:49;7.00;;;3.30;;
30149;SDS011;16962;48.646;9.026;2024-03-25T16:31:38;4.38;;;1.80;;
30149;SDS011;16962;48.646;9.026;2024-03-25T16:34:31;4.28;;;1.73;;
30149;SDS011;16962;48.646;9.026;2024-03-25T16:37:17;2.25;;;1.27;;
30149;SDS011;16962;48.646;9.026;2024-03-25T16:40:04;2.70;;;1.40;;
30149;SDS011;16962;48.646;9.026;2024-03-25T16:42:52;2.65;;;1.70;;
30149;SDS011;16962;48.646;9.026;2024-03-25T16:45:38;3.75;;;1.80;;
30149;SDS011;16962;48.646;9.026;2024-03-25T16:48:25;2.40;;;1.90;;
30149;SDS011;16962;48.646;9.026;2024-03-25T16:51:11;4.38;;;2.10;;